createdAt,value
2022-10-31T00:02:00.028Z,100816.42
2022-10-31T00:04:31.932Z,100813.27
2022-10-31T00:07:03.567Z,100818.48
2022-10-31T00:09:35.262Z,100815.84
2022-10-31T00:12:07.572Z,100819.95
2022-10-31T00:14:39.691Z,100818.77
2022-10-31T00:17:11.615Z,100819.21
2022-10-31T00:19:43.358Z,100816.68
2022-10-31T00:22:15.118Z,100814.36
2022-10-31T00:24:46.788Z,100812.88
2022-10-31T00:27:18.449Z,100820.70
2022-10-31T00:29:49.805Z,100825.35
2022-10-31T00:32:21.757Z,100818.30
2022-10-31T00:34:53.641Z,100814.02
2022-10-31T00:37:25.432Z,100813.54
2022-10-31T00:39:57.122Z,100818.35
2022-10-31T00:42:28.815Z,100816.88
2022-10-31T00:45:02.841Z,100815.90
2022-10-31T00:47:34.629Z,100817.53
2022-10-31T00:50:06.987Z,100822.90
2022-10-31T00:52:39.004Z,100820.88
2022-10-31T00:55:11.312Z,100824.83
2022-10-31T00:57:42.965Z,100822.56
2022-10-31T01:00:16.651Z,100821.86
2022-10-31T01:02:48.571Z,100822.44
2022-10-31T01:05:20.655Z,100819.64
2022-10-31T01:07:52.640Z,100820.66
2022-10-31T01:10:24.552Z,100827.00
2022-10-31T01:12:57.355Z,100825.39
2022-10-31T01:15:29.377Z,100829.58
2022-10-31T01:18:01.371Z,100831.60
2022-10-31T01:20:35.573Z,100835.61
2022-10-31T01:23:07.555Z,100835.96
2022-10-31T01:25:39.752Z,100836.86
2022-10-31T01:28:11.475Z,100833.73
2022-10-31T01:30:43.137Z,100833.75
2022-10-31T01:33:14.792Z,100828.66
2022-10-31T01:35:48.856Z,100834.66
2022-10-31T01:38:20.603Z,100830.91
2022-10-31T01:40:52.560Z,100831.00
2022-10-31T01:43:24.231Z,100830.44
2022-10-31T01:45:56.974Z,100831.06
2022-10-31T01:48:29.173Z,100832.02
2022-10-31T01:51:01.069Z,100828.36
2022-10-31T01:53:33.017Z,100832.47
2022-10-31T01:56:05.125Z,100833.67
2022-10-31T01:58:37.320Z,100833.35
2022-10-31T02:01:09.271Z,100831.79
2022-10-31T02:03:41.665Z,100828.01
2022-10-31T02:06:22.863Z,100831.74
2022-10-31T02:08:55.726Z,100828.02
2022-10-31T02:11:27.916Z,100830.83
2022-10-31T02:14:00.303Z,100830.87
2022-10-31T02:16:32.231Z,100829.85
2022-10-31T02:19:04.622Z,100835.34
2022-10-31T02:21:44.976Z,100835.93
2022-10-31T02:24:45.647Z,100839.79
2022-10-31T02:27:43.329Z,100837.85
2022-10-31T02:30:20.520Z,100838.09
2022-10-31T02:33:16.957Z,100835.56
2022-10-31T02:35:59.442Z,100837.13
2022-10-31T02:38:41.153Z,100839.91
2022-10-31T02:41:21.990Z,100839.14
2022-10-31T02:44:05.886Z,100838.70
2022-10-31T02:46:42.104Z,100840.02
2022-10-31T02:49:25.306Z,100838.23
2022-10-31T02:51:57.656Z,100839.72
2022-10-31T02:54:31.074Z,100838.55
2022-10-31T02:57:08.693Z,100836.98
2022-10-31T02:59:47.781Z,100840.27
2022-10-31T03:02:51.176Z,100845.34
2022-10-31T03:05:37.461Z,100848.77
2022-10-31T03:08:18.014Z,100847.21
2022-10-31T03:10:55.461Z,100849.63
2022-10-31T03:13:34.723Z,100847.68
2022-10-31T03:16:13.772Z,100849.36
2022-10-31T03:18:52.053Z,100850.15
2022-10-31T03:21:28.342Z,100853.71
2022-10-31T03:24:01.599Z,100848.83
2022-10-31T03:26:35.421Z,100853.38
2022-10-31T03:29:09.925Z,100856.98
2022-10-31T03:31:53.120Z,100856.99
2022-10-31T03:34:27.755Z,100853.42
2022-10-31T03:37:04.306Z,100854.39
2022-10-31T03:39:38.441Z,100850.09
2022-10-31T03:42:14.061Z,100849.54
2022-10-31T03:44:52.733Z,100850.19
2022-10-31T03:47:25.152Z,100852.91
2022-10-31T03:49:57.936Z,100850.38
2022-10-31T03:52:36.527Z,100846.86
2022-10-31T03:55:15.773Z,100849.09
2022-10-31T03:57:55.097Z,100850.77
2022-10-31T04:00:28.742Z,100852.23
2022-10-31T04:03:05.670Z,100851.02
2022-10-31T04:05:39.600Z,100855.24
2022-10-31T04:08:16.377Z,100853.40
2022-10-31T04:10:51.776Z,100855.33
2022-10-31T04:13:29.131Z,100857.48
2022-10-31T04:16:17.346Z,100861.06
2022-10-31T04:18:49.484Z,100856.31
2022-10-31T04:21:21.594Z,100863.30
2022-10-31T04:23:53.852Z,100861.17
2022-10-31T04:26:30.105Z,100860.29
2022-10-31T04:29:01.224Z,100866.61
2022-10-31T04:31:32.892Z,100869.30
2022-10-31T04:34:04.557Z,100867.08
2022-10-31T04:36:36.362Z,100863.20
2022-10-31T04:39:08.047Z,100860.77
2022-10-31T04:42:00.237Z,100861.48
2022-10-31T04:44:31.909Z,100861.44
2022-10-31T04:47:05.496Z,100861.77
2022-10-31T04:49:37.209Z,100863.61
2022-10-31T04:52:09.216Z,100863.70
2022-10-31T04:54:40.901Z,100866.77
2022-10-31T04:57:45.631Z,100868.00
2022-10-31T05:00:20.831Z,100870.15
2022-10-31T05:02:56.703Z,100865.13
2022-10-31T05:05:32.934Z,100865.19
2022-10-31T05:08:06.937Z,100864.81
2022-10-31T05:10:38.622Z,100863.61
2022-10-31T05:13:10.468Z,100866.35
2022-10-31T05:16:05.069Z,100867.04
2022-10-31T05:18:56.693Z,100868.64
2022-10-31T05:21:53.459Z,100872.25
2022-10-31T05:24:25.362Z,100880.80
2022-10-31T05:26:57.872Z,100881.20
2022-10-31T05:29:29.599Z,100882.58
2022-10-31T05:32:01.290Z,100880.30
2022-10-31T05:35:10.163Z,100883.60
2022-10-31T05:38:01.447Z,100887.30
2022-10-31T05:40:33.062Z,100891.69
2022-10-31T05:43:04.707Z,100892.45
2022-10-31T05:45:36.323Z,100891.66
2022-10-31T05:48:11.855Z,100890.39
2022-10-31T05:51:02.079Z,100892.48
2022-10-31T05:53:33.711Z,100894.27
2022-10-31T05:56:05.660Z,100894.36
2022-10-31T05:58:37.604Z,100897.73
2022-10-31T06:01:10.999Z,100900.95
2022-10-31T06:03:43.104Z,100903.86
2022-10-31T06:06:15.377Z,100900.28
2022-10-31T06:08:47.022Z,100904.15
2022-10-31T06:11:20.638Z,100910.46
2022-10-31T06:14:15.174Z,100907.86
2022-10-31T06:17:04.970Z,100900.27
2022-10-31T06:22:26.585Z,100903.19
2022-10-31T06:24:58.354Z,100910.17
2022-10-31T06:27:40.279Z,100913.34
2022-10-31T06:30:17.854Z,100916.74
2022-10-31T06:32:51.563Z,100921.53
2022-10-31T06:35:24.956Z,100924.72
2022-10-31T06:37:57.574Z,100924.38
2022-10-31T06:40:35.669Z,100932.02
2022-10-31T06:43:36.598Z,100935.49
2022-10-31T06:46:27.131Z,100943.37
2022-10-31T06:49:19.070Z,100945.21
2022-10-31T06:52:02.470Z,100948.38
2022-10-31T06:54:34.396Z,100953.98
2022-10-31T06:57:06.314Z,100955.64
2022-10-31T06:59:38.075Z,100957.50
2022-10-31T07:02:17.868Z,100957.96
2022-10-31T07:04:49.618Z,100956.88
2022-10-31T07:07:22.692Z,100958.59
2022-10-31T07:09:55.509Z,100961.40
2022-10-31T07:12:39.434Z,100962.48
2022-10-31T07:15:12.289Z,100970.40
2022-10-31T07:17:44.042Z,100975.92
2022-10-31T07:20:19.047Z,100973.80
2022-10-31T07:22:50.974Z,100979.83
2022-10-31T07:25:21.914Z,100986.02
2022-10-31T07:28:32.053Z,100986.84
2022-10-31T07:31:04.647Z,100989.49
2022-10-31T07:33:36.689Z,100988.16
2022-10-31T07:36:37.443Z,100992.61
2022-10-31T07:39:09.278Z,100996.79
2022-10-31T07:41:41.022Z,100996.84
2022-10-31T07:44:14.283Z,100999.27
2022-10-31T07:47:04.813Z,100994.11
2022-10-31T07:49:55.384Z,100999.81
2022-10-31T07:52:46.156Z,100998.39
2022-10-31T07:55:47.341Z,100995.15
2022-10-31T07:58:20.003Z,100992.38
2022-10-31T08:00:52.116Z,100992.14
2022-10-31T08:03:30.890Z,100990.50
2022-10-31T08:06:21.696Z,100985.17
2022-10-31T08:09:12.096Z,100986.08
2022-10-31T08:11:44.469Z,100984.97
2022-10-31T08:14:16.641Z,100982.58
2022-10-31T08:16:49.556Z,100981.22
2022-10-31T08:19:22.810Z,100984.17
2022-10-31T08:21:56.676Z,100977.18
2022-10-31T08:24:28.751Z,100989.90
2022-10-31T08:27:03.624Z,100986.72
2022-10-31T08:29:35.949Z,100986.71
2022-10-31T08:32:08.727Z,100986.23
2022-10-31T08:35:00.036Z,100990.50
2022-10-31T08:37:56.620Z,100994.41
2022-10-31T08:40:31.838Z,100994.31
2022-10-31T08:43:06.364Z,100996.78
2022-10-31T08:45:38.820Z,101001.52
2022-10-31T08:48:17.884Z,101002.92
2022-10-31T08:50:50.443Z,101003.61
2022-10-31T08:53:23.644Z,101007.60
2022-10-31T08:56:03.790Z,101009.77
2022-10-31T08:58:40.095Z,101010.20
2022-10-31T09:01:12.483Z,101012.10
2022-10-31T09:03:44.250Z,101008.88
2022-10-31T09:06:16.194Z,101005.38
2022-10-31T09:08:48.046Z,101006.08
2022-10-31T09:11:19.652Z,101014.50
2022-10-31T09:14:10.114Z,101017.14
2022-10-31T09:16:44.556Z,101012.73
2022-10-31T09:19:21.870Z,101019.28
2022-10-31T09:21:56.598Z,101018.61
2022-10-31T09:24:28.248Z,101021.02
2022-10-31T09:27:01.741Z,101019.54
2022-10-31T09:29:33.405Z,101022.95
2022-10-31T09:32:05.645Z,101024.27
2022-10-31T09:34:43.410Z,101021.98
2022-10-31T09:37:16.757Z,101023.80
2022-10-31T09:39:48.477Z,101019.92
2022-10-31T09:42:44.516Z,101027.40
2022-10-31T09:45:28.510Z,101031.48
2022-10-31T09:48:15.182Z,101033.32
2022-10-31T09:51:10.975Z,101036.52
2022-10-31T09:54:04.119Z,101035.91
2022-10-31T09:56:36.826Z,101035.55
2022-10-31T09:59:19.380Z,101031.52
2022-10-31T10:01:53.589Z,101033.56
2022-10-31T10:04:40.297Z,101037.39
2022-10-31T10:07:32.368Z,101041.42
2022-10-31T10:10:39.950Z,101042.70
2022-10-31T10:13:58.824Z,101046.17
2022-10-31T10:16:53.431Z,101041.80
2022-10-31T10:19:45.345Z,101041.73
2022-10-31T10:22:23.309Z,101043.30
2022-10-31T10:25:13.167Z,101041.04
2022-10-31T10:27:53.568Z,101041.32
2022-10-31T10:30:36.358Z,101036.94
2022-10-31T10:33:13.393Z,101032.27
2022-10-31T10:35:49.272Z,101028.50
2022-10-31T10:38:29.487Z,101025.64
2022-10-31T10:41:03.992Z,101023.24
2022-10-31T10:43:38.158Z,101023.69
2022-10-31T10:46:37.658Z,101022.73
2022-10-31T10:49:20.217Z,101022.40
2022-10-31T10:52:19.867Z,101022.38
2022-10-31T10:55:03.429Z,101023.27
2022-10-31T10:57:55.090Z,101018.52
2022-10-31T11:00:29.702Z,101016.98
2022-10-31T11:03:02.162Z,101011.90
2022-10-31T11:05:36.247Z,101009.36
2022-10-31T11:08:08.857Z,101007.13
2022-10-31T11:10:41.203Z,101005.77
2022-10-31T11:13:25.676Z,101003.70
2022-10-31T11:16:04.768Z,101005.02
2022-10-31T11:18:39.836Z,101002.57
2022-10-31T11:21:24.300Z,101006.21
2022-10-31T11:24:14.493Z,101002.65
2022-10-31T11:26:48.624Z,100996.13
2022-10-31T11:29:25.815Z,101002.08
2022-10-31T11:32:01.036Z,101001.40
2022-10-31T11:34:35.515Z,101002.48
2022-10-31T11:37:17.941Z,101004.16
2022-10-31T11:39:55.088Z,101010.38
2022-10-31T11:42:31.278Z,101007.34
2022-10-31T11:45:08.336Z,101005.68
2022-10-31T11:47:43.654Z,101009.13
2022-10-31T11:50:24.287Z,101003.52
2022-10-31T11:52:57.484Z,101005.63
2022-10-31T11:55:38.534Z,101006.66
2022-10-31T11:58:24.420Z,101006.27
2022-10-31T12:00:58.541Z,101002.29
2022-10-31T12:03:42.763Z,100997.80
2022-10-31T12:06:18.928Z,100999.77
2022-10-31T12:08:50.814Z,100993.10
2022-10-31T12:11:42.724Z,100996.73
2022-10-31T12:14:25.417Z,100994.77
2022-10-31T12:17:03.454Z,100991.86
2022-10-31T12:19:43.414Z,100993.67
2022-10-31T12:22:25.613Z,100993.15
2022-10-31T12:25:13.512Z,100990.56
2022-10-31T12:28:26.685Z,100993.53
2022-10-31T12:31:10.460Z,100990.81
2022-10-31T12:33:55.234Z,100989.23
2022-10-31T12:36:40.756Z,100987.77
2022-10-31T12:39:26.745Z,100984.89
2022-10-31T12:42:08.060Z,100987.33
2022-10-31T12:44:57.902Z,100985.54
2022-10-31T12:47:43.654Z,100983.98
2022-10-31T12:50:31.239Z,100977.65
2022-10-31T12:56:03.605Z,100979.40
2022-10-31T12:58:39.087Z,100976.73
2022-10-31T13:01:16.889Z,100974.39
2022-10-31T13:03:55.393Z,100974.64
2022-10-31T13:06:44.358Z,100972.80
2022-10-31T13:09:22.048Z,100969.09
2022-10-31T13:11:59.209Z,100969.55
2022-10-31T13:14:44.035Z,100966.38
2022-10-31T13:17:24.137Z,100961.91
2022-10-31T13:20:03.420Z,100955.34
2022-10-31T13:22:37.614Z,100958.04
2022-10-31T13:25:17.226Z,100956.76
2022-10-31T13:27:56.262Z,100958.77
2022-10-31T13:30:31.653Z,100959.20
2022-10-31T13:33:10.487Z,100955.10
2022-10-31T13:35:48.940Z,100953.73
2022-10-31T13:38:31.847Z,100951.38
2022-10-31T13:41:06.487Z,100945.40
2022-10-31T13:43:56.764Z,100944.92
2022-10-31T13:46:38.572Z,100947.84
2022-10-31T13:49:26.138Z,100947.80
2022-10-31T13:52:14.379Z,100945.92
2022-10-31T13:54:48.625Z,100948.96
2022-10-31T13:57:24.609Z,100949.67
2022-10-31T14:00:00.353Z,100950.92
2022-10-31T14:02:35.450Z,100950.17
2022-10-31T14:05:26.338Z,100949.02
2022-10-31T14:08:01.675Z,100945.01
2022-10-31T14:10:38.569Z,100939.29
2022-10-31T14:13:17.672Z,100938.42
2022-10-31T14:15:59.222Z,100936.48
2022-10-31T14:18:35.434Z,100935.16
2022-10-31T14:21:29.283Z,100936.17
2022-10-31T14:24:01.137Z,100932.11
2022-10-31T14:26:37.982Z,100933.60
2022-10-31T14:29:27.572Z,100934.81
2022-10-31T14:32:08.708Z,100936.72
2022-10-31T14:34:43.249Z,100935.72
2022-10-31T14:37:47.481Z,100937.84
2022-10-31T14:40:32.908Z,100944.27
2022-10-31T14:43:35.780Z,100946.30
2022-10-31T14:46:16.664Z,100943.25
2022-10-31T14:49:12.645Z,100940.73
2022-10-31T14:51:46.858Z,100942.14
2022-10-31T14:54:23.886Z,100938.86
2022-10-31T14:57:01.672Z,100937.71
2022-10-31T14:59:37.362Z,100936.30
2022-10-31T15:02:19.804Z,100941.46
2022-10-31T15:04:53.266Z,100942.85
2022-10-31T15:07:27.986Z,100942.73
2022-10-31T15:10:02.061Z,100943.52
2022-10-31T15:12:36.176Z,100941.96
2022-10-31T15:15:20.788Z,100943.61
2022-10-31T15:17:56.595Z,100943.67
2022-10-31T15:20:30.200Z,100938.45
2022-10-31T15:23:03.234Z,100947.73
2022-10-31T15:25:37.153Z,100949.02
2022-10-31T15:28:23.268Z,100950.65
2022-10-31T15:30:57.014Z,100950.98
2022-10-31T15:33:37.580Z,100952.83
2022-10-31T15:36:25.625Z,100953.09
2022-10-31T15:39:00.812Z,100955.30
2022-10-31T15:41:36.365Z,100958.64
2022-10-31T15:44:16.809Z,100959.55
2022-10-31T15:46:56.746Z,100963.90
2022-10-31T15:49:37.120Z,100965.22
2022-10-31T15:52:17.916Z,100967.13
2022-10-31T15:54:53.868Z,100970.37
2022-10-31T15:57:27.197Z,100973.39
2022-10-31T15:59:59.086Z,100973.81
2022-10-31T16:02:31.038Z,100975.61
2022-10-31T16:05:04.076Z,100978.18
2022-10-31T16:07:36.048Z,100974.92
2022-10-31T16:10:22.021Z,100978.80
2022-10-31T16:12:54.414Z,100977.68
2022-10-31T16:15:26.284Z,100977.43
2022-10-31T16:18:01.571Z,100979.42
2022-10-31T16:20:34.449Z,100979.23
2022-10-31T16:23:06.364Z,100978.58
2022-10-31T16:25:40.859Z,100979.54
2022-10-31T16:28:20.401Z,100981.04
2022-10-31T16:30:54.070Z,100979.27
2022-10-31T16:33:34.166Z,100979.85
2022-10-31T16:36:36.542Z,100982.34
2022-10-31T16:39:09.347Z,100977.10
2022-10-31T16:41:44.888Z,100977.61
2022-10-31T16:44:23.617Z,100982.23
2022-10-31T16:47:14.411Z,100984.06
2022-10-31T16:49:50.900Z,100984.98
2022-10-31T16:52:22.602Z,100983.44
2022-10-31T16:54:55.171Z,100988.61
2022-10-31T16:57:32.368Z,100985.39
2022-10-31T17:00:05.490Z,100987.36
2022-10-31T17:02:37.489Z,100984.38
2022-10-31T17:05:13.520Z,100986.95
2022-10-31T17:07:45.799Z,100979.65
2022-10-31T17:10:20.210Z,100976.21
2022-10-31T17:12:53.078Z,100975.46
2022-10-31T17:15:27.009Z,100977.83
2022-10-31T17:17:59.084Z,100977.63
2022-10-31T17:20:33.044Z,100977.92
2022-10-31T17:23:05.243Z,100978.70
2022-10-31T17:25:37.409Z,100975.53
2022-10-31T17:28:12.470Z,100977.20
2022-10-31T17:30:45.349Z,100976.55
2022-10-31T17:33:16.264Z,100974.28
2022-10-31T17:35:48.136Z,100976.86
2022-10-31T17:38:20.097Z,100978.17
2022-10-31T17:40:51.895Z,100979.13
2022-10-31T17:43:27.250Z,100977.68
2022-10-31T17:46:01.859Z,100971.18
2022-10-31T17:48:34.113Z,100972.38
2022-10-31T17:51:07.221Z,100974.35
2022-10-31T17:53:39.445Z,100972.06
2022-10-31T17:56:12.557Z,100972.80
2022-10-31T17:58:45.219Z,100972.71
2022-10-31T18:01:18.678Z,100974.27
2022-10-31T18:03:52.316Z,100974.11
2022-10-31T18:06:24.804Z,100976.36
2022-10-31T18:08:58.132Z,100974.73
2022-10-31T18:11:29.931Z,100972.42
2022-10-31T18:14:02.020Z,100969.88
2022-10-31T18:16:34.099Z,100965.90
2022-10-31T18:19:06.088Z,100967.13
2022-10-31T18:21:38.271Z,100966.18
2022-10-31T18:24:11.957Z,100969.97
2022-10-31T18:26:43.568Z,100969.62
2022-10-31T18:29:15.598Z,100969.93
2022-10-31T18:31:49.598Z,100965.17
2022-10-31T18:34:21.715Z,100972.69
2022-10-31T18:36:53.711Z,100972.35
2022-10-31T18:39:25.716Z,100966.16
2022-10-31T18:41:58.212Z,100966.95
2022-10-31T18:44:30.769Z,100967.08
2022-10-31T18:47:02.567Z,100966.96
2022-10-31T18:49:34.396Z,100965.16
2022-10-31T18:52:06.827Z,100959.43
2022-10-31T18:54:38.690Z,100957.19
2022-10-31T18:57:10.457Z,100957.45
2022-10-31T18:59:42.246Z,100953.80
2022-10-31T19:02:15.865Z,100955.30
2022-10-31T19:04:47.772Z,100951.09
2022-10-31T19:07:19.817Z,100949.86
2022-10-31T19:09:51.574Z,100948.73
2022-10-31T19:12:25.762Z,100952.59
2022-10-31T19:14:57.580Z,100948.25
2022-10-31T19:17:29.436Z,100949.36
2022-10-31T19:20:01.168Z,100947.58
2022-10-31T19:22:34.421Z,100944.74
2022-10-31T19:25:10.585Z,100942.59
2022-10-31T19:27:43.253Z,100944.66
2022-10-31T19:30:17.054Z,100945.20
2022-10-31T19:32:48.890Z,100938.54
2022-10-31T19:35:20.709Z,100942.32
2022-10-31T19:37:52.722Z,100938.70
2022-10-31T19:40:24.748Z,100940.44
2022-10-31T19:42:56.941Z,100938.67
2022-10-31T19:45:29.637Z,100940.17
2022-10-31T19:48:04.045Z,100935.35
2022-10-31T19:50:37.153Z,100938.08
2022-10-31T19:53:08.790Z,100938.98
2022-10-31T19:55:45.702Z,100942.44
2022-10-31T19:58:18.681Z,100940.18
2022-10-31T20:00:51.429Z,100940.68
2022-10-31T20:03:24.401Z,100939.39
2022-10-31T20:05:57.060Z,100941.48
2022-10-31T20:08:28.948Z,100937.91
2022-10-31T20:11:05.940Z,100934.97
2022-10-31T20:13:39.300Z,100936.61
2022-10-31T20:16:13.928Z,100934.80
2022-10-31T20:18:48.084Z,100931.21
2022-10-31T20:21:26.517Z,100935.08
2022-10-31T20:24:00.623Z,100932.52
2022-10-31T20:26:36.402Z,100935.09
2022-10-31T20:29:09.570Z,100934.35
2022-10-31T20:31:41.697Z,100932.25
2022-10-31T20:34:13.982Z,100931.49
2022-10-31T20:36:46.727Z,100928.88
2022-10-31T20:39:17.066Z,100926.84
2022-10-31T20:41:51.631Z,100923.34
2022-10-31T20:44:24.382Z,100919.05
2022-10-31T20:47:00.785Z,100916.09
2022-10-31T20:49:34.719Z,100915.20
2022-10-31T20:52:07.447Z,100917.11
2022-10-31T20:54:39.495Z,100916.17
2022-10-31T20:57:11.380Z,100914.89
2022-10-31T20:59:43.650Z,100911.98
2022-10-31T21:02:17.029Z,100907.89
2022-10-31T21:04:49.659Z,100901.99
2022-10-31T21:07:21.529Z,100906.60
2022-10-31T21:09:53.628Z,100905.21
2022-10-31T21:12:25.560Z,100905.71
2022-10-31T21:14:57.702Z,100900.69
2022-10-31T21:17:31.215Z,100903.14
2022-10-31T21:20:04.798Z,100900.98
2022-10-31T21:22:36.772Z,100901.51
2022-10-31T21:25:10.859Z,100906.17
2022-10-31T21:27:45.921Z,100910.04
2022-10-31T21:30:16.859Z,100912.98
2022-10-31T21:32:49.192Z,100917.63
2022-10-31T21:35:21.448Z,100920.72
2022-10-31T21:37:52.822Z,100919.34
2022-10-31T21:40:25.340Z,100919.70
2022-10-31T21:42:56.559Z,100912.30
2022-10-31T21:45:28.744Z,100906.90
2022-10-31T21:48:01.357Z,100907.18
2022-10-31T21:50:34.968Z,100908.28
2022-10-31T21:53:20.689Z,100906.16
2022-10-31T21:55:52.771Z,100896.75
2022-10-31T21:58:25.885Z,100893.46
2022-10-31T22:01:01.369Z,100891.58
2022-10-31T22:03:35.547Z,100889.95
2022-10-31T22:06:09.010Z,100895.46
2022-10-31T22:08:43.745Z,100890.79
2022-10-31T22:11:17.668Z,100888.55
2022-10-31T22:13:50.861Z,100887.09
2022-10-31T22:16:24.663Z,100882.97
2022-10-31T22:18:58.021Z,100883.00
2022-10-31T22:21:30.444Z,100880.31
2022-10-31T22:24:05.112Z,100879.91
2022-10-31T22:26:40.488Z,100881.73
2022-10-31T22:29:13.009Z,100879.14
2022-10-31T22:31:48.464Z,100879.67
2022-10-31T22:34:22.753Z,100876.04
2022-10-31T22:36:56.662Z,100870.91
2022-10-31T22:39:28.601Z,100872.87
2022-10-31T22:42:00.446Z,100873.27
2022-10-31T22:44:32.141Z,100873.04
2022-10-31T22:47:04.254Z,100873.38
2022-10-31T22:49:36.055Z,100874.15
2022-10-31T22:52:08.060Z,100873.27
2022-10-31T22:54:39.794Z,100877.45
2022-10-31T22:57:11.646Z,100877.92
2022-10-31T22:59:43.451Z,100867.05
2022-10-31T23:02:15.329Z,100858.25
2022-10-31T23:04:46.993Z,100855.07
2022-10-31T23:07:23.121Z,100854.15
2022-10-31T23:09:56.613Z,100847.98
2022-10-31T23:12:48.292Z,100850.96
2022-10-31T23:15:20.225Z,100851.05
2022-10-31T23:17:51.870Z,100846.27
2022-10-31T23:20:23.574Z,100845.61
2022-10-31T23:22:55.143Z,100836.71
2022-10-31T23:25:44.638Z,100836.58
2022-10-31T23:28:16.366Z,100839.77
2022-10-31T23:30:49.293Z,100835.61
2022-10-31T23:33:21.101Z,100831.64
2022-10-31T23:35:52.806Z,100827.34
2022-10-31T23:38:24.498Z,100817.65
2022-10-31T23:40:56.132Z,100811.90
2022-10-31T23:43:27.845Z,100810.36
2022-10-31T23:45:59.537Z,100803.28
2022-10-31T23:48:31.383Z,100800.10
2022-10-31T23:51:03.045Z,100797.72
2022-10-31T23:56:06.770Z,100798.23
2022-10-31T23:58:38.398Z,100794.86
